PILOTS ONLINE: 387    ATC ONLINE: 86

KSDM

Brown Field Municipal Airport

Location

City San Diego
Country  United States
Latitude 32° 34' 20" N
Longitude 116° 58' 48" W
Elevation 526 ft
Type Medium Airport

Map

Weather

METAR
2014/08/30 01:53
KSDM 300153Z 27008KT 10SM CLR 22/18 A2982 RMK AO2 SLP095 T02170178 $
TAF
No TAF available

Runways

08L/26R 7972 ft / 150 ft
08R/26L 3180 ft / 75 ft

Outbound flights

Callsign Flying to Pilot ATD/STD ETA Aircraft

Inbound flights

Callsign Flying from Pilot ATD ETA Aircraft